createdAt,value
2022-12-08T00:19:02.232Z,28
2022-12-08T00:47:25.050Z,30
2022-12-08T01:15:32.660Z,26
2022-12-08T01:43:33.091Z,26
2022-12-08T02:12:08.873Z,24
2022-12-08T02:40:14.261Z,25
2022-12-08T03:08:28.562Z,24
2022-12-08T03:36:47.533Z,23
2022-12-08T04:05:07.213Z,23
2022-12-08T04:33:53.601Z,22
2022-12-08T05:02:56.673Z,20
2022-12-08T05:31:43.014Z,22
2022-12-08T06:00:28.535Z,21
2022-12-08T06:29:15.369Z,20
2022-12-08T06:58:16.393Z,20
2022-12-08T07:27:13.653Z,21
2022-12-08T07:56:10.356Z,23
2022-12-08T08:24:45.152Z,27
2022-12-08T08:52:48.289Z,25
2022-12-08T09:21:10.356Z,23
2022-12-08T09:49:28.223Z,20
2022-12-08T10:17:47.545Z,26
2022-12-08T10:46:07.133Z,21
2022-12-08T11:14:35.975Z,21
2022-12-08T11:42:47.695Z,22
2022-12-08T12:11:03.823Z,21
2022-12-08T12:39:29.745Z,17
2022-12-08T13:08:01.776Z,17
2022-12-08T13:36:25.654Z,15
2022-12-08T14:33:13.078Z,14
2022-12-08T15:01:30.490Z,16
2022-12-08T15:29:42.803Z,18
2022-12-08T15:58:51.542Z,20
2022-12-08T16:26:28.896Z,21
2022-12-08T16:54:31.567Z,31
2022-12-08T17:22:28.147Z,28
2022-12-08T17:50:53.138Z,33
2022-12-08T18:19:34.683Z,29
2022-12-08T18:48:15.245Z,24
2022-12-08T19:17:22.477Z,24
2022-12-08T19:46:23.383Z,27
2022-12-08T20:15:06.944Z,29
2022-12-08T20:43:51.397Z,29
2022-12-08T21:12:41.819Z,36
2022-12-08T21:41:19.180Z,43
2022-12-08T22:10:11.330Z,39
2022-12-08T22:38:39.484Z,41
2022-12-08T23:07:26.821Z,32
2022-12-08T23:36:02.710Z,30
